sensor_id;sensor_type;location;lat;lon;timestamp;pressure;altitude;pressure_sealevel;temperature;humidity
12785;BME280;6456;42.680;23.260;2023-03-08T00:02:21;93817.22;;;8.97;68.20
12785;BME280;6456;42.680;23.260;2023-03-08T00:04:47;93810.88;;;8.75;68.34
12785;BME280;6456;42.680;23.260;2023-03-08T00:07:14;93779.78;;;8.61;68.50
12785;BME280;6456;42.680;23.260;2023-03-08T00:09:43;93769.16;;;8.56;68.64
12785;BME280;6456;42.680;23.260;2023-03-08T00:12:10;93760.91;;;8.52;68.71
12785;BME280;6456;42.680;23.260;2023-03-08T00:14:37;93815.16;;;8.70;68.69
12785;BME280;6456;42.680;23.260;2023-03-08T00:17:04;93825.22;;;8.73;69.27
12785;BME280;6456;42.680;23.260;2023-03-08T00:19:31;93750.78;;;8.19;69.66
12785;BME280;6456;42.680;23.260;2023-03-08T00:21:58;93840.56;;;8.69;69.94
12785;BME280;6456;42.680;23.260;2023-03-08T00:24:25;93712.50;;;7.82;70.08
12785;BME280;6456;42.680;23.260;2023-03-08T00:26:54;93834.19;;;8.65;70.18
12785;BME280;6456;42.680;23.260;2023-03-08T00:29:20;93767.97;;;8.15;70.60
12785;BME280;6456;42.680;23.260;2023-03-08T00:31:47;93771.53;;;8.21;70.81
12785;BME280;6456;42.680;23.260;2023-03-08T00:34:15;93822.97;;;8.58;71.08
12785;BME280;6456;42.680;23.260;2023-03-08T00:36:42;93816.56;;;8.36;71.02
12785;BME280;6456;42.680;23.260;2023-03-08T00:39:10;93680.47;;;7.62;71.10
12785;BME280;6456;42.680;23.260;2023-03-08T00:41:38;93835.50;;;8.56;71.46
12785;BME280;6456;42.680;23.260;2023-03-08T00:44:07;93815.53;;;8.55;71.35
12785;BME280;6456;42.680;23.260;2023-03-08T00:46:34;93797.88;;;8.08;72.10
12785;BME280;6456;42.680;23.260;2023-03-08T00:49:01;93780.69;;;8.12;72.31
12785;BME280;6456;42.680;23.260;2023-03-08T00:51:29;93734.25;;;7.83;72.09
12785;BME280;6456;42.680;23.260;2023-03-08T00:53:56;93781.28;;;7.96;72.53
12785;BME280;6456;42.680;23.260;2023-03-08T00:56:23;93827.38;;;8.21;72.71
12785;BME280;6456;42.680;23.260;2023-03-08T00:58:50;93816.22;;;8.08;72.95
12785;BME280;6456;42.680;23.260;2023-03-08T01:01:18;93753.75;;;7.68;73.11
12785;BME280;6456;42.680;23.260;2023-03-08T01:03:45;93733.91;;;7.36;73.29
12785;BME280;6456;42.680;23.260;2023-03-08T01:06:13;93726.03;;;7.36;73.26
12785;BME280;6456;42.680;23.260;2023-03-08T01:08:40;93834.72;;;8.13;73.83
12785;BME280;6456;42.680;23.260;2023-03-08T01:11:14;93715.84;;;7.28;74.24
12785;BME280;6456;42.680;23.260;2023-03-08T01:13:41;93846.84;;;8.07;73.60
12785;BME280;6456;42.680;23.260;2023-03-08T01:16:14;93840.06;;;8.00;74.05
12785;BME280;6456;42.680;23.260;2023-03-08T01:18:42;93672.69;;;6.88;74.23
12785;BME280;6456;42.680;23.260;2023-03-08T01:21:10;93716.78;;;7.09;74.56
12785;BME280;6456;42.680;23.260;2023-03-08T01:23:37;93695.59;;;6.92;74.82
12785;BME280;6456;42.680;23.260;2023-03-08T01:26:07;93730.19;;;7.19;74.85
12785;BME280;6456;42.680;23.260;2023-03-08T01:28:34;93675.09;;;6.89;74.93
12785;BME280;6456;42.680;23.260;2023-03-08T01:31:02;93739.22;;;7.23;74.92
12785;BME280;6456;42.680;23.260;2023-03-08T01:33:30;93745.38;;;7.35;74.69
12785;BME280;6456;42.680;23.260;2023-03-08T01:35:58;93749.16;;;7.39;74.19
12785;BME280;6456;42.680;23.260;2023-03-08T01:38:25;93768.59;;;7.50;74.79
12785;BME280;6456;42.680;23.260;2023-03-08T01:40:56;93780.84;;;7.56;75.32
12785;BME280;6456;42.680;23.260;2023-03-08T01:43:24;93787.56;;;7.45;75.25
12785;BME280;6456;42.680;23.260;2023-03-08T01:46:03;93773.75;;;7.32;75.29
12785;BME280;6456;42.680;23.260;2023-03-08T01:48:32;93766.47;;;7.09;76.05
12785;BME280;6456;42.680;23.260;2023-03-08T01:51:03;93749.28;;;6.95;76.38
12785;BME280;6456;42.680;23.260;2023-03-08T01:53:34;93825.44;;;7.43;77.25
12785;BME280;6456;42.680;23.260;2023-03-08T01:56:03;93716.66;;;6.73;77.14
12785;BME280;6456;42.680;23.260;2023-03-08T01:58:31;93828.59;;;7.51;76.91
12785;BME280;6456;42.680;23.260;2023-03-08T02:00:58;93845.06;;;7.58;76.67
12785;BME280;6456;42.680;23.260;2023-03-08T02:03:25;93829.69;;;7.37;77.23
12785;BME280;6456;42.680;23.260;2023-03-08T02:05:52;93850.22;;;7.40;77.74
12785;BME280;6456;42.680;23.260;2023-03-08T02:08:20;93848.56;;;7.46;77.04
12785;BME280;6456;42.680;23.260;2023-03-08T02:10:47;93800.81;;;7.19;77.32
12785;BME280;6456;42.680;23.260;2023-03-08T02:13:15;93841.03;;;7.31;77.89
12785;BME280;6456;42.680;23.260;2023-03-08T02:15:44;93834.81;;;7.26;77.98
12785;BME280;6456;42.680;23.260;2023-03-08T02:18:11;93791.34;;;6.93;78.13
12785;BME280;6456;42.680;23.260;2023-03-08T02:20:39;93838.25;;;7.20;78.47
12785;BME280;6456;42.680;23.260;2023-03-08T02:23:10;93826.19;;;7.19;78.79
12785;BME280;6456;42.680;23.260;2023-03-08T02:25:37;93787.34;;;6.84;79.12
12785;BME280;6456;42.680;23.260;2023-03-08T02:28:05;93668.28;;;6.19;78.88
12785;BME280;6456;42.680;23.260;2023-03-08T02:30:34;93679.50;;;6.26;78.86
12785;BME280;6456;42.680;23.260;2023-03-08T02:33:01;93848.88;;;7.31;78.88
12785;BME280;6456;42.680;23.260;2023-03-08T02:35:29;93846.63;;;7.35;78.64
12785;BME280;6456;42.680;23.260;2023-03-08T02:37:56;93738.38;;;6.67;78.76
12785;BME280;6456;42.680;23.260;2023-03-08T02:40:24;93775.31;;;6.83;78.98
12785;BME280;6456;42.680;23.260;2023-03-08T02:42:51;93746.91;;;6.56;78.92
12785;BME280;6456;42.680;23.260;2023-03-08T02:45:20;93803.22;;;6.89;79.27
12785;BME280;6456;42.680;23.260;2023-03-08T02:47:47;93859.56;;;7.23;79.21
12785;BME280;6456;42.680;23.260;2023-03-08T02:50:14;93858.19;;;7.21;79.43
12785;BME280;6456;42.680;23.260;2023-03-08T02:52:41;93804.09;;;6.77;79.40
12785;BME280;6456;42.680;23.260;2023-03-08T02:55:09;93850.75;;;7.18;79.46
12785;BME280;6456;42.680;23.260;2023-03-08T02:57:37;93742.56;;;6.36;79.68
12785;BME280;6456;42.680;23.260;2023-03-08T03:00:05;93786.28;;;6.61;79.69
12785;BME280;6456;42.680;23.260;2023-03-08T03:02:32;93682.66;;;5.97;80.06
12785;BME280;6456;42.680;23.260;2023-03-08T03:05:01;93808.78;;;6.62;80.90
12785;BME280;6456;42.680;23.260;2023-03-08T03:07:28;93796.38;;;6.51;80.98
12785;BME280;6456;42.680;23.260;2023-03-08T03:09:55;93800.53;;;6.65;81.14
12785;BME280;6456;42.680;23.260;2023-03-08T03:12:22;93818.63;;;6.66;81.30
12785;BME280;6456;42.680;23.260;2023-03-08T03:14:50;93815.25;;;6.53;81.84
12785;BME280;6456;42.680;23.260;2023-03-08T03:17:17;93852.59;;;6.73;82.33
12785;BME280;6456;42.680;23.260;2023-03-08T03:19:44;93847.34;;;6.73;82.66
12785;BME280;6456;42.680;23.260;2023-03-08T03:22:11;93798.44;;;6.35;82.79
12785;BME280;6456;42.680;23.260;2023-03-08T03:24:38;93834.72;;;6.57;82.85
12785;BME280;6456;42.680;23.260;2023-03-08T03:27:05;93817.31;;;6.37;82.77
12785;BME280;6456;42.680;23.260;2023-03-08T03:29:32;93896.44;;;6.71;83.42
12785;BME280;6456;42.680;23.260;2023-03-08T03:32:01;93800.13;;;6.10;83.84
12785;BME280;6456;42.680;23.260;2023-03-08T03:34:27;93822.00;;;6.22;83.67
12785;BME280;6456;42.680;23.260;2023-03-08T03:36:55;93838.66;;;6.28;84.64
12785;BME280;6456;42.680;23.260;2023-03-08T03:39:22;93889.63;;;6.63;84.59
12785;BME280;6456;42.680;23.260;2023-03-08T03:41:48;93837.06;;;6.20;84.89
12785;BME280;6456;42.680;23.260;2023-03-08T03:44:15;93773.06;;;5.72;85.11
12785;BME280;6456;42.680;23.260;2023-03-08T03:46:42;93888.28;;;6.34;85.82
12785;BME280;6456;42.680;23.260;2023-03-08T03:49:11;93883.25;;;6.26;86.18
12785;BME280;6456;42.680;23.260;2023-03-08T03:51:38;93844.13;;;6.00;86.52
12785;BME280;6456;42.680;23.260;2023-03-08T03:54:05;93862.38;;;6.20;86.70
12785;BME280;6456;42.680;23.260;2023-03-08T03:56:32;93896.50;;;6.44;86.60
12785;BME280;6456;42.680;23.260;2023-03-08T03:58:59;93901.50;;;6.53;86.16
12785;BME280;6456;42.680;23.260;2023-03-08T04:01:27;93875.22;;;6.34;86.19
12785;BME280;6456;42.680;23.260;2023-03-08T04:03:55;93843.50;;;6.11;86.14
12785;BME280;6456;42.680;23.260;2023-03-08T04:06:25;93900.13;;;6.43;86.58
12785;BME280;6456;42.680;23.260;2023-03-08T04:08:55;93889.31;;;6.33;85.42
12785;BME280;6456;42.680;23.260;2023-03-08T04:11:24;93867.44;;;5.95;86.95
12785;BME280;6456;42.680;23.260;2023-03-08T04:13:52;93905.16;;;6.19;87.92
12785;BME280;6456;42.680;23.260;2023-03-08T04:16:20;93907.97;;;6.24;87.94
12785;BME280;6456;42.680;23.260;2023-03-08T04:18:50;93884.94;;;6.01;88.63
12785;BME280;6456;42.680;23.260;2023-03-08T04:21:18;93909.78;;;6.30;88.90
12785;BME280;6456;42.680;23.260;2023-03-08T04:23:46;93910.97;;;6.34;88.70
12785;BME280;6456;42.680;23.260;2023-03-08T04:26:14;93904.78;;;6.09;89.09
12785;BME280;6456;42.680;23.260;2023-03-08T04:28:41;93901.59;;;6.13;89.46
12785;BME280;6456;42.680;23.260;2023-03-08T04:31:12;93889.09;;;6.09;87.72
12785;BME280;6456;42.680;23.260;2023-03-08T04:33:39;93870.47;;;5.92;88.76
12785;BME280;6456;42.680;23.260;2023-03-08T04:36:06;93920.25;;;6.23;88.85
12785;BME280;6456;42.680;23.260;2023-03-08T04:38:33;93855.19;;;5.89;89.03
12785;BME280;6456;42.680;23.260;2023-03-08T04:41:02;93917.03;;;6.21;89.22
12785;BME280;6456;42.680;23.260;2023-03-08T04:43:35;93905.59;;;6.22;89.62
12785;BME280;6456;42.680;23.260;2023-03-08T04:46:02;93901.53;;;6.26;88.81
12785;BME280;6456;42.680;23.260;2023-03-08T04:48:32;93778.69;;;5.49;88.34
12785;BME280;6456;42.680;23.260;2023-03-08T04:51:00;93844.53;;;5.77;89.24
12785;BME280;6456;42.680;23.260;2023-03-08T04:53:29;93873.66;;;5.94;89.38
12785;BME280;6456;42.680;23.260;2023-03-08T04:55:59;93827.66;;;5.67;88.88
12785;BME280;6456;42.680;23.260;2023-03-08T04:58:28;93803.19;;;5.29;89.43
12785;BME280;6456;42.680;23.260;2023-03-08T05:00:58;93856.38;;;5.54;90.29
12785;BME280;6456;42.680;23.260;2023-03-08T05:03:25;93866.81;;;5.67;90.76
12785;BME280;6456;42.680;23.260;2023-03-08T05:05:54;93906.63;;;5.89;91.37
12785;BME280;6456;42.680;23.260;2023-03-08T05:08:21;93924.25;;;6.06;90.61
12785;BME280;6456;42.680;23.260;2023-03-08T05:10:51;93944.75;;;6.09;90.97
12785;BME280;6456;42.680;23.260;2023-03-08T05:13:19;93896.97;;;5.96;91.17
12785;BME280;6456;42.680;23.260;2023-03-08T05:15:47;93955.81;;;6.37;90.92
12785;BME280;6456;42.680;23.260;2023-03-08T05:18:14;93894.34;;;6.02;91.00
12785;BME280;6456;42.680;23.260;2023-03-08T05:20:41;93939.53;;;6.35;90.68
12785;BME280;6456;42.680;23.260;2023-03-08T05:23:09;93833.72;;;5.87;90.16
12785;BME280;6456;42.680;23.260;2023-03-08T05:25:40;93873.44;;;6.09;90.35
12785;BME280;6456;42.680;23.260;2023-03-08T05:28:08;93893.91;;;6.31;90.28
12785;BME280;6456;42.680;23.260;2023-03-08T05:30:34;93834.94;;;5.91;89.98
12785;BME280;6456;42.680;23.260;2023-03-08T05:33:03;93868.44;;;6.01;90.02
12785;BME280;6456;42.680;23.260;2023-03-08T05:35:29;93831.50;;;5.71;89.57
12785;BME280;6456;42.680;23.260;2023-03-08T05:37:56;93936.66;;;6.57;89.58
12785;BME280;6456;42.680;23.260;2023-03-08T05:40:23;93987.91;;;6.84;90.20
12785;BME280;6456;42.680;23.260;2023-03-08T05:42:50;93877.66;;;6.16;89.17
12785;BME280;6456;42.680;23.260;2023-03-08T05:45:17;93814.81;;;5.72;89.29
12785;BME280;6456;42.680;23.260;2023-03-08T05:47:44;93960.56;;;6.67;88.57
12785;BME280;6456;42.680;23.260;2023-03-08T05:50:13;93955.97;;;6.62;88.60
12785;BME280;6456;42.680;23.260;2023-03-08T05:52:49;93988.47;;;6.92;88.97
12785;BME280;6456;42.680;23.260;2023-03-08T05:55:17;93853.34;;;6.09;88.41
12785;BME280;6456;42.680;23.260;2023-03-08T05:57:43;93976.00;;;6.94;88.11
12785;BME280;6456;42.680;23.260;2023-03-08T06:00:11;93887.69;;;6.32;88.19
12785;BME280;6456;42.680;23.260;2023-03-08T06:02:38;93894.91;;;6.24;88.39
12785;BME280;6456;42.680;23.260;2023-03-08T06:05:06;93885.31;;;5.98;89.82
12785;BME280;6456;42.680;23.260;2023-03-08T06:07:35;93938.50;;;6.36;90.37
12785;BME280;6456;42.680;23.260;2023-03-08T06:10:01;94005.22;;;6.78;90.50
12785;BME280;6456;42.680;23.260;2023-03-08T06:12:29;93878.88;;;5.94;90.58
12785;BME280;6456;42.680;23.260;2023-03-08T06:14:56;93873.25;;;6.10;90.57
12785;BME280;6456;42.680;23.260;2023-03-08T06:17:22;93983.69;;;6.83;90.70
12785;BME280;6456;42.680;23.260;2023-03-08T06:19:49;93914.81;;;6.38;90.40
12785;BME280;6456;42.680;23.260;2023-03-08T06:22:16;93969.94;;;6.94;89.88
12785;BME280;6456;42.680;23.260;2023-03-08T06:24:44;93984.25;;;6.91;90.30
12785;BME280;6456;42.680;23.260;2023-03-08T06:27:14;93952.53;;;6.75;89.74
12785;BME280;6456;42.680;23.260;2023-03-08T06:29:41;93954.31;;;6.81;89.50
12785;BME280;6456;42.680;23.260;2023-03-08T06:32:08;94012.50;;;7.27;89.40
12785;BME280;6456;42.680;23.260;2023-03-08T06:34:34;94022.34;;;7.38;89.17
12785;BME280;6456;42.680;23.260;2023-03-08T06:37:01;94005.19;;;7.49;88.09
12785;BME280;6456;42.680;23.260;2023-03-08T06:39:28;93980.47;;;7.38;87.33
12785;BME280;6456;42.680;23.260;2023-03-08T06:41:57;93963.34;;;7.42;86.44
12785;BME280;6456;42.680;23.260;2023-03-08T06:44:25;93886.28;;;6.94;87.92
12785;BME280;6456;42.680;23.260;2023-03-08T06:46:52;93912.38;;;7.07;87.10
12785;BME280;6456;42.680;23.260;2023-03-08T06:49:19;94057.44;;;8.13;85.79
12785;BME280;6456;42.680;23.260;2023-03-08T06:51:46;94043.41;;;8.01;83.91
12785;BME280;6456;42.680;23.260;2023-03-08T06:54:13;93940.06;;;7.28;83.92
12785;BME280;6456;42.680;23.260;2023-03-08T06:56:42;94061.19;;;8.23;83.42
12785;BME280;6456;42.680;23.260;2023-03-08T06:59:10;94066.19;;;8.38;82.60
12785;BME280;6456;42.680;23.260;2023-03-08T07:01:37;93995.25;;;7.95;81.69
12785;BME280;6456;42.680;23.260;2023-03-08T07:04:04;94056.56;;;8.57;81.17
12785;BME280;6456;42.680;23.260;2023-03-08T07:06:31;94071.69;;;8.79;80.80
12785;BME280;6456;42.680;23.260;2023-03-08T07:08:58;93996.47;;;8.55;79.28
12785;BME280;6456;42.680;23.260;2023-03-08T07:11:25;93897.75;;;7.93;78.34
12785;BME280;6456;42.680;23.260;2023-03-08T07:13:54;93966.44;;;8.51;77.37
12785;BME280;6456;42.680;23.260;2023-03-08T07:16:24;94106.28;;;9.37;77.59
12785;BME280;6456;42.680;23.260;2023-03-08T07:18:51;93998.94;;;8.93;76.70
12785;BME280;6456;42.680;23.260;2023-03-08T07:21:18;94088.50;;;9.57;75.45
12785;BME280;6456;42.680;23.260;2023-03-08T07:23:45;94019.72;;;9.13;75.13
12785;BME280;6456;42.680;23.260;2023-03-08T07:26:12;94082.09;;;9.72;74.52
12785;BME280;6456;42.680;23.260;2023-03-08T07:28:39;94067.34;;;9.89;73.62
12785;BME280;6456;42.680;23.260;2023-03-08T07:31:09;93996.69;;;9.51;73.31
12785;BME280;6456;42.680;23.260;2023-03-08T07:33:38;94036.75;;;9.94;72.89
12785;BME280;6456;42.680;23.260;2023-03-08T07:36:05;94003.72;;;9.68;71.62
12785;BME280;6456;42.680;23.260;2023-03-08T07:38:32;93924.13;;;9.38;69.81
12785;BME280;6456;42.680;23.260;2023-03-08T07:40:59;93987.28;;;9.73;69.95
12785;BME280;6456;42.680;23.260;2023-03-08T07:43:26;94024.53;;;10.00;69.57
12785;BME280;6456;42.680;23.260;2023-03-08T07:45:53;93949.31;;;9.57;71.19
12785;BME280;6456;42.680;23.260;2023-03-08T07:48:19;94075.13;;;10.55;70.23
12785;BME280;6456;42.680;23.260;2023-03-08T07:50:48;94080.00;;;10.81;69.15
12785;BME280;6456;42.680;23.260;2023-03-08T07:53:14;94079.94;;;10.99;68.44
12785;BME280;6456;42.680;23.260;2023-03-08T07:55:41;94069.88;;;11.19;66.45
12785;BME280;6456;42.680;23.260;2023-03-08T07:58:08;94079.34;;;11.20;66.26
12785;BME280;6456;42.680;23.260;2023-03-08T08:00:35;93945.78;;;10.35;67.01
12785;BME280;6456;42.680;23.260;2023-03-08T08:03:02;94064.38;;;11.09;66.45
12785;BME280;6456;42.680;23.260;2023-03-08T08:05:29;94076.47;;;10.87;66.40
12785;BME280;6456;42.680;23.260;2023-03-08T08:07:57;94082.09;;;11.14;66.00
12785;BME280;6456;42.680;23.260;2023-03-08T08:10:24;94076.97;;;11.07;65.91
12785;BME280;6456;42.680;23.260;2023-03-08T08:12:51;94081.66;;;11.17;65.41
12785;BME280;6456;42.680;23.260;2023-03-08T08:15:18;94076.03;;;11.13;65.22
12785;BME280;6456;42.680;23.260;2023-03-08T08:17:45;94035.84;;;10.83;66.16
12785;BME280;6456;42.680;23.260;2023-03-08T08:20:12;94050.41;;;10.97;65.85
12785;BME280;6456;42.680;23.260;2023-03-08T08:22:39;94095.25;;;11.25;66.04
12785;BME280;6456;42.680;23.260;2023-03-08T08:25:08;94027.25;;;10.87;65.77
12785;BME280;6456;42.680;23.260;2023-03-08T08:27:36;94093.44;;;11.37;65.89
12785;BME280;6456;42.680;23.260;2023-03-08T08:30:04;94098.56;;;11.32;66.06
12785;BME280;6456;42.680;23.260;2023-03-08T08:32:31;94082.78;;;11.32;66.54
12785;BME280;6456;42.680;23.260;2023-03-08T08:34:58;94052.13;;;11.15;66.84
12785;BME280;6456;42.680;23.260;2023-03-08T08:37:25;94003.13;;;10.90;65.90
12785;BME280;6456;42.680;23.260;2023-03-08T08:39:52;94104.44;;;11.69;64.73
12785;BME280;6456;42.680;23.260;2023-03-08T08:42:20;93997.03;;;11.13;63.99
12785;BME280;6456;42.680;23.260;2023-03-08T08:44:48;94096.31;;;12.10;63.88
12785;BME280;6456;42.680;23.260;2023-03-08T08:47:15;93973.69;;;11.68;62.04
12785;BME280;6456;42.680;23.260;2023-03-08T08:49:41;94031.66;;;12.36;61.12
12785;BME280;6456;42.680;23.260;2023-03-08T08:52:08;94084.09;;;12.77;59.16
12785;BME280;6456;42.680;23.260;2023-03-08T08:54:35;94087.47;;;12.90;58.67
12785;BME280;6456;42.680;23.260;2023-03-08T08:57:04;94029.53;;;12.50;59.42
12785;BME280;6456;42.680;23.260;2023-03-08T08:59:32;94086.91;;;12.88;60.04
12785;BME280;6456;42.680;23.260;2023-03-08T09:01:59;94050.72;;;12.71;58.62
12785;BME280;6456;42.680;23.260;2023-03-08T09:04:26;94094.84;;;12.88;58.43
12785;BME280;6456;42.680;23.260;2023-03-08T09:06:52;94093.50;;;12.57;59.53
12785;BME280;6456;42.680;23.260;2023-03-08T09:09:19;94095.44;;;12.61;59.38
12785;BME280;6456;42.680;23.260;2023-03-08T09:11:46;94094.34;;;12.74;58.96
12785;BME280;6456;42.680;23.260;2023-03-08T09:14:13;94077.97;;;12.60;59.14
12785;BME280;6456;42.680;23.260;2023-03-08T09:16:41;94025.38;;;12.09;59.94
12785;BME280;6456;42.680;23.260;2023-03-08T09:19:08;94012.44;;;11.96;61.30
12785;BME280;6456;42.680;23.260;2023-03-08T09:21:36;94079.22;;;12.41;60.74
12785;BME280;6456;42.680;23.260;2023-03-08T09:24:05;94079.94;;;12.65;60.15
12785;BME280;6456;42.680;23.260;2023-03-08T09:26:33;94075.59;;;12.75;59.58
12785;BME280;6456;42.680;23.260;2023-03-08T09:29:01;94066.91;;;12.92;59.20
12785;BME280;6456;42.680;23.260;2023-03-08T09:31:30;93974.97;;;12.22;58.62
12785;BME280;6456;42.680;23.260;2023-03-08T09:33:59;94064.75;;;12.88;58.28
12785;BME280;6456;42.680;23.260;2023-03-08T09:36:29;93941.53;;;12.28;58.34
12785;BME280;6456;42.680;23.260;2023-03-08T09:38:55;94071.63;;;13.23;58.04
12785;BME280;6456;42.680;23.260;2023-03-08T09:41:48;93998.34;;;12.80;60.30
12785;BME280;6456;42.680;23.260;2023-03-08T09:44:25;94068.38;;;13.16;60.72
12785;BME280;6456;42.680;23.260;2023-03-08T09:47:03;94021.22;;;12.91;58.94
12785;BME280;6456;42.680;23.260;2023-03-08T09:49:33;94035.69;;;13.05;58.71
12785;BME280;6456;42.680;23.260;2023-03-08T09:52:05;93998.31;;;13.13;57.64
12785;BME280;6456;42.680;23.260;2023-03-08T09:54:34;94058.94;;;13.58;57.27
12785;BME280;6456;42.680;23.260;2023-03-08T09:57:05;94053.50;;;13.48;57.18
12785;BME280;6456;42.680;23.260;2023-03-08T09:59:38;93906.94;;;12.57;58.23
12785;BME280;6456;42.680;23.260;2023-03-08T10:02:18;93950.81;;;12.97;57.04
12785;BME280;6456;42.680;23.260;2023-03-08T10:04:56;94025.91;;;13.61;56.23
12785;BME280;6456;42.680;23.260;2023-03-08T10:07:33;94048.41;;;13.63;56.95
12785;BME280;6456;42.680;23.260;2023-03-08T10:10:17;94039.41;;;13.59;59.42
12785;BME280;6456;42.680;23.260;2023-03-08T10:12:59;94007.28;;;13.50;56.66
12785;BME280;6456;42.680;23.260;2023-03-08T10:15:30;94042.72;;;13.71;56.68
12785;BME280;6456;42.680;23.260;2023-03-08T10:18:01;94011.06;;;13.55;56.22
12785;BME280;6456;42.680;23.260;2023-03-08T10:20:34;94006.19;;;13.68;55.59
12785;BME280;6456;42.680;23.260;2023-03-08T10:23:13;94034.78;;;13.93;54.51
12785;BME280;6456;42.680;23.260;2023-03-08T10:25:41;93937.22;;;13.26;55.75
12785;BME280;6456;42.680;23.260;2023-03-08T10:28:13;94035.47;;;13.83;54.85
12785;BME280;6456;42.680;23.260;2023-03-08T10:30:43;94035.84;;;13.92;53.67
12785;BME280;6456;42.680;23.260;2023-03-08T10:33:12;93989.84;;;13.71;53.42
12785;BME280;6456;42.680;23.260;2023-03-08T10:35:53;94031.75;;;14.28;52.24
12785;BME280;6456;42.680;23.260;2023-03-08T10:38:22;94031.97;;;14.48;51.51
12785;BME280;6456;42.680;23.260;2023-03-08T10:40:58;93939.19;;;14.06;51.18
12785;BME280;6456;42.680;23.260;2023-03-08T10:43:27;94011.69;;;14.58;51.37
12785;BME280;6456;42.680;23.260;2023-03-08T10:46:02;94028.13;;;14.92;50.49
12785;BME280;6456;42.680;23.260;2023-03-08T10:48:30;94002.16;;;14.89;50.65
12785;BME280;6456;42.680;23.260;2023-03-08T10:51:00;94017.47;;;15.19;49.75
12785;BME280;6456;42.680;23.260;2023-03-08T10:53:27;94011.94;;;15.25;47.57
12785;BME280;6456;42.680;23.260;2023-03-08T10:55:55;93981.66;;;15.16;47.89
12785;BME280;6456;42.680;23.260;2023-03-08T10:58:28;93995.72;;;15.17;47.81
12785;BME280;6456;42.680;23.260;2023-03-08T11:00:57;93959.31;;;15.02;45.96
12785;BME280;6456;42.680;23.260;2023-03-08T11:03:25;93975.69;;;15.36;47.47
12785;BME280;6456;42.680;23.260;2023-03-08T11:05:55;93937.22;;;15.28;43.94
12785;BME280;6456;42.680;23.260;2023-03-08T11:08:25;94001.09;;;15.79;43.96
12785;BME280;6456;42.680;23.260;2023-03-08T11:11:03;93923.03;;;15.50;42.40
12785;BME280;6456;42.680;23.260;2023-03-08T11:13:31;93982.06;;;15.87;40.82
12785;BME280;6456;42.680;23.260;2023-03-08T11:16:06;93928.88;;;15.52;40.70
12785;BME280;6456;42.680;23.260;2023-03-08T11:18:46;93979.09;;;15.78;41.30
12785;BME280;6456;42.680;23.260;2023-03-08T11:21:19;93873.00;;;15.11;42.16
12785;BME280;6456;42.680;23.260;2023-03-08T11:23:58;93895.81;;;15.12;42.01
12785;BME280;6456;42.680;23.260;2023-03-08T11:26:35;93871.13;;;15.07;42.13
12785;BME280;6456;42.680;23.260;2023-03-08T11:29:15;93956.75;;;15.64;41.50
12785;BME280;6456;42.680;23.260;2023-03-08T11:31:50;93956.47;;;15.61;41.83
12785;BME280;6456;42.680;23.260;2023-03-08T11:37:26;93944.53;;;15.63;43.06
12785;BME280;6456;42.680;23.260;2023-03-08T11:40:01;93901.72;;;15.29;41.88
12785;BME280;6456;42.680;23.260;2023-03-08T11:42:40;93911.19;;;15.15;43.10
12785;BME280;6456;42.680;23.260;2023-03-08T11:45:24;93930.81;;;15.19;44.04
12785;BME280;6456;42.680;23.260;2023-03-08T11:48:11;93873.88;;;14.75;45.10
12785;BME280;6456;42.680;23.260;2023-03-08T11:50:46;93930.47;;;15.11;44.15
12785;BME280;6456;42.680;23.260;2023-03-08T11:53:19;93905.78;;;14.95;43.78
12785;BME280;6456;42.680;23.260;2023-03-08T11:58:47;93869.47;;;14.96;45.12
12785;BME280;6456;42.680;23.260;2023-03-08T12:01:19;93832.63;;;14.89;44.73
12785;BME280;6456;42.680;23.260;2023-03-08T12:03:53;93886.34;;;15.36;43.06
12785;BME280;6456;42.680;23.260;2023-03-08T12:06:24;93867.06;;;15.46;41.84
12785;BME280;6456;42.680;23.260;2023-03-08T12:08:57;93798.56;;;15.13;41.64
12785;BME280;6456;42.680;23.260;2023-03-08T12:11:30;93817.97;;;15.38;41.33
12785;BME280;6456;42.680;23.260;2023-03-08T12:14:12;93841.66;;;15.50;41.58
12785;BME280;6456;42.680;23.260;2023-03-08T12:16:46;93822.50;;;15.43;41.10
12785;BME280;6456;42.680;23.260;2023-03-08T12:19:27;93771.25;;;15.07;40.57
12785;BME280;6456;42.680;23.260;2023-03-08T12:22:01;93863.66;;;15.61;41.22
12785;BME280;6456;42.680;23.260;2023-03-08T12:24:40;93827.50;;;15.34;40.70
12785;BME280;6456;42.680;23.260;2023-03-08T12:27:17;93877.69;;;15.51;41.36
12785;BME280;6456;42.680;23.260;2023-03-08T12:29:50;93898.16;;;15.71;40.96
12785;BME280;6456;42.680;23.260;2023-03-08T12:32:20;93835.47;;;15.39;40.66
12785;BME280;6456;42.680;23.260;2023-03-08T12:35:00;93920.56;;;16.10;40.93
12785;BME280;6456;42.680;23.260;2023-03-08T12:37:28;93801.81;;;15.40;40.29
12785;BME280;6456;42.680;23.260;2023-03-08T12:39:59;93877.56;;;16.08;40.13
12785;BME280;6456;42.680;23.260;2023-03-08T12:42:36;93860.06;;;16.17;40.61
12785;BME280;6456;42.680;23.260;2023-03-08T12:45:26;93869.63;;;16.33;39.47
12785;BME280;6456;42.680;23.260;2023-03-08T12:48:08;93893.53;;;16.53;39.40
12785;BME280;6456;42.680;23.260;2023-03-08T12:50:41;93768.22;;;15.66;38.73
12785;BME280;6456;42.680;23.260;2023-03-08T12:53:31;93905.19;;;16.42;39.93
12785;BME280;6456;42.680;23.260;2023-03-08T12:56:22;93904.66;;;16.30;39.31
12785;BME280;6456;42.680;23.260;2023-03-08T12:58:57;93827.66;;;15.85;39.90
12785;BME280;6456;42.680;23.260;2023-03-08T13:01:36;93838.81;;;16.02;39.95
12785;BME280;6456;42.680;23.260;2023-03-08T13:04:06;93905.19;;;16.47;39.96
12785;BME280;6456;42.680;23.260;2023-03-08T13:07:22;93845.19;;;16.26;39.88
12785;BME280;6456;42.680;23.260;2023-03-08T13:09:58;93835.88;;;16.29;40.35
12785;BME280;6456;42.680;23.260;2023-03-08T13:12:51;93861.38;;;16.50;38.75
12785;BME280;6456;42.680;23.260;2023-03-08T13:15:25;93883.97;;;16.67;38.57
12785;BME280;6456;42.680;23.260;2023-03-08T13:17:58;93741.16;;;15.64;38.25
12785;BME280;6456;42.680;23.260;2023-03-08T13:20:54;93823.69;;;15.97;37.84
12785;BME280;6456;42.680;23.260;2023-03-08T13:23:29;93783.34;;;15.70;38.67
12785;BME280;6456;42.680;23.260;2023-03-08T13:26:18;93864.03;;;16.30;39.46
12785;BME280;6456;42.680;23.260;2023-03-08T13:28:47;93829.81;;;15.98;40.04